Hunmanby, United Kingdom
Current Conditions -  °F | °C
As of 5:50 AM on Sunday 23 Nov 2014 (Local Time) from EGXV Reporting Station
Moderate Rain Moderate Rain  
Wind Chill:   Ceiling: 3800
Heat Index:   Visibility: 4mi
Dew Point:   Wind: 6mph
Humidity: 100%   Direction: 280°W
Pressure: 29.97"   Gusts: NA
Location:  54.18°N, 0.32°W
Report Text: EGXV 230550Z AUTO 28005KT 7000 RA OVC038/// 09/09 Q1015
Loading
Personal Weather Stations






























Interactive Weather Map New forecast layout! Learn more

10-Day Weather Forecast

Advertisements
Track Severe Weather on mobile